createdAt,value
2022-11-30T00:00:49.029Z,14.60
2022-11-30T00:03:15.551Z,19.43
2022-11-30T00:05:42.425Z,18.10
2022-11-30T00:08:08.913Z,18.60
2022-11-30T00:10:35.502Z,24.40
2022-11-30T00:13:01.999Z,18.07
2022-11-30T00:15:28.500Z,24.97
2022-11-30T00:17:57.921Z,26.00
2022-11-30T00:20:24.690Z,19.73
2022-11-30T00:22:51.316Z,18.97
2022-11-30T00:25:17.929Z,23.47
2022-11-30T00:27:44.423Z,22.43
2022-11-30T00:30:11.481Z,19.30
2022-11-30T00:32:37.939Z,27.37
2022-11-30T00:35:04.686Z,25.03
2022-11-30T00:37:31.261Z,24.73
2022-11-30T00:39:57.823Z,16.90
2022-11-30T00:42:24.256Z,18.93
2022-11-30T00:44:50.850Z,18.27
2022-11-30T00:47:17.323Z,23.73
2022-11-30T00:49:43.861Z,23.03
2022-11-30T00:52:10.353Z,19.17
2022-11-30T00:54:36.829Z,33.20
2022-11-30T00:57:03.339Z,18.70
2022-11-30T00:59:29.843Z,16.43
2022-11-30T01:01:56.434Z,21.30
2022-11-30T01:04:22.949Z,28.17
2022-11-30T01:06:49.442Z,19.70
2022-11-30T01:09:16.027Z,21.93
2022-11-30T01:11:42.551Z,15.07
2022-11-30T01:14:09.072Z,16.37
2022-11-30T01:16:35.601Z,20.37
2022-11-30T01:19:02.327Z,11.70
2022-11-30T01:21:29.465Z,18.40
2022-11-30T01:23:56.493Z,17.80
2022-11-30T01:26:23.707Z,16.43
2022-11-30T01:28:55.151Z,22.83
2022-11-30T01:31:23.796Z,19.83
2022-11-30T01:33:52.840Z,14.40
2022-11-30T01:36:22.048Z,18.30
2022-11-30T01:38:50.949Z,17.97
2022-11-30T01:41:21.914Z,15.40
2022-11-30T01:43:50.727Z,14.83
2022-11-30T01:46:42.287Z,17.97
2022-11-30T01:49:08.693Z,15.17
2022-11-30T01:51:51.731Z,20.03
2022-11-30T01:54:26.655Z,19.20
2022-11-30T01:57:02.190Z,16.37
2022-11-30T01:59:29.633Z,19.20
2022-11-30T02:01:56.545Z,24.13
2022-11-30T02:04:28.868Z,18.43
2022-11-30T02:06:57.741Z,26.33
2022-11-30T02:09:26.079Z,21.30
2022-11-30T02:11:53.348Z,18.63
2022-11-30T02:14:36.328Z,19.43
2022-11-30T02:17:08.815Z,21.00
2022-11-30T02:20:05.990Z,17.13
2022-11-30T02:23:00.451Z,22.10
2022-11-30T02:26:11.425Z,23.17
2022-11-30T02:28:52.675Z,22.33
2022-11-30T02:31:25.488Z,20.27
2022-11-30T02:33:54.139Z,20.60
2022-11-30T02:36:22.476Z,19.10
2022-11-30T02:38:49.297Z,19.27
2022-11-30T02:41:15.834Z,17.43
2022-11-30T02:43:42.581Z,16.03
2022-11-30T02:46:29.770Z,16.93
2022-11-30T02:49:14.027Z,20.37
2022-11-30T02:51:42.725Z,14.23
2022-11-30T02:54:09.533Z,19.13
2022-11-30T02:56:36.255Z,20.43
2022-11-30T02:59:02.809Z,19.00
2022-11-30T03:01:29.871Z,21.63
2022-11-30T03:03:56.385Z,15.87
2022-11-30T03:06:22.921Z,20.47
2022-11-30T03:08:49.372Z,17.70
2022-11-30T03:11:15.872Z,18.33
2022-11-30T03:13:42.378Z,17.30
2022-11-30T03:16:10.924Z,28.17
2022-11-30T03:18:38.276Z,14.33
2022-11-30T03:21:06.608Z,14.63
2022-11-30T03:23:33.608Z,19.00
2022-11-30T03:26:00.154Z,16.80
2022-11-30T03:28:26.672Z,17.40
2022-11-30T03:30:53.284Z,21.00
2022-11-30T03:33:19.955Z,17.87
2022-11-30T03:35:46.617Z,15.80
2022-11-30T03:38:13.154Z,17.07
2022-11-30T03:40:39.634Z,16.00
2022-11-30T03:43:06.266Z,26.30
2022-11-30T03:45:32.735Z,18.67
2022-11-30T03:47:59.263Z,15.87
2022-11-30T03:50:25.757Z,20.43
2022-11-30T03:52:52.245Z,19.40
2022-11-30T03:55:18.770Z,14.77
2022-11-30T03:57:45.281Z,19.80
2022-11-30T04:00:12.325Z,15.43
2022-11-30T04:02:44.299Z,14.80
2022-11-30T04:05:11.285Z,23.67
2022-11-30T04:07:37.800Z,20.70
2022-11-30T04:10:08.384Z,17.07
2022-11-30T04:12:35.372Z,22.23
2022-11-30T04:15:01.810Z,18.50
2022-11-30T04:17:28.485Z,20.43
2022-11-30T04:19:55.029Z,20.37
2022-11-30T04:22:21.596Z,17.20
2022-11-30T04:24:48.279Z,18.90
2022-11-30T04:27:14.917Z,14.77
2022-11-30T04:29:41.414Z,14.23
2022-11-30T04:32:08.008Z,22.63
2022-11-30T04:34:34.633Z,16.97
2022-11-30T04:37:01.102Z,18.83
2022-11-30T04:39:27.621Z,12.37
2022-11-30T04:41:54.144Z,23.70
2022-11-30T04:44:20.646Z,11.47
2022-11-30T04:46:47.141Z,19.67
2022-11-30T04:49:13.762Z,16.97
2022-11-30T04:51:40.217Z,21.23
2022-11-30T04:54:06.734Z,17.77
2022-11-30T04:56:33.289Z,17.60
2022-11-30T04:59:01.318Z,23.47
2022-11-30T05:01:28.187Z,15.53
2022-11-30T05:03:54.741Z,15.90
2022-11-30T05:06:21.320Z,16.70
2022-11-30T05:08:47.770Z,13.63
2022-11-30T05:11:14.345Z,16.20
2022-11-30T05:13:41.940Z,11.87
2022-11-30T05:16:10.638Z,16.97
2022-11-30T05:18:37.227Z,16.03
2022-11-30T05:21:03.752Z,17.33
2022-11-30T05:23:30.267Z,17.23
2022-11-30T05:25:56.764Z,20.23
2022-11-30T05:28:23.283Z,11.40
2022-11-30T05:30:49.771Z,22.20
2022-11-30T05:33:16.253Z,15.17
2022-11-30T05:35:43.210Z,24.03
2022-11-30T05:38:09.888Z,17.43
2022-11-30T05:40:36.781Z,17.73
2022-11-30T05:43:04.916Z,15.70
2022-11-30T05:45:31.424Z,20.37
2022-11-30T05:47:58.018Z,15.90
2022-11-30T05:50:24.675Z,15.70
2022-11-30T05:52:56.205Z,22.40
2022-11-30T05:55:26.644Z,20.10
2022-11-30T05:57:53.937Z,14.00
2022-11-30T06:00:21.736Z,14.03
2022-11-30T06:02:48.721Z,17.77
2022-11-30T06:05:15.445Z,16.13
2022-11-30T06:07:41.966Z,18.40
2022-11-30T06:10:09.131Z,21.30
2022-11-30T06:12:35.596Z,14.20
2022-11-30T06:15:02.174Z,21.33
2022-11-30T06:17:28.653Z,21.23
2022-11-30T06:19:55.121Z,38.83
2022-11-30T06:22:21.937Z,20.57
2022-11-30T06:24:48.590Z,22.70
2022-11-30T06:27:15.296Z,41.37
2022-11-30T06:29:41.768Z,18.60
2022-11-30T06:32:08.464Z,34.90
2022-11-30T06:34:34.989Z,22.47
2022-11-30T06:37:01.486Z,21.27
2022-11-30T06:39:57.842Z,11.27
2022-11-30T06:42:14.584Z,41.30
2022-11-30T06:44:41.071Z,44.10
2022-11-30T06:47:07.602Z,45.63
2022-11-30T06:49:34.136Z,47.60
2022-11-30T06:52:01.779Z,26.13
2022-11-30T06:54:28.380Z,38.87
2022-11-30T06:56:56.623Z,36.73
2022-11-30T06:59:23.195Z,24.37
2022-11-30T07:01:49.663Z,22.73
2022-11-30T07:04:16.205Z,47.00
2022-11-30T07:06:43.531Z,41.90
2022-11-30T07:09:11.010Z,38.07
2022-11-30T07:11:37.504Z,26.20
2022-11-30T07:14:04.065Z,29.70
2022-11-30T07:16:30.629Z,21.17
2022-11-30T07:18:57.258Z,36.40
2022-11-30T07:21:24.369Z,60.90
2022-11-30T07:24:09.658Z,30.47
2022-11-30T07:26:36.288Z,15.93
2022-11-30T07:29:02.937Z,21.23
2022-11-30T07:31:32.317Z,17.77
2022-11-30T07:34:05.560Z,21.63
2022-11-30T07:36:32.691Z,19.70
2022-11-30T07:38:59.354Z,23.50
2022-11-30T07:41:26.308Z,35.67
2022-11-30T07:43:53.031Z,24.03
2022-11-30T07:46:19.910Z,22.60
2022-11-30T07:48:46.796Z,29.87
2022-11-30T07:51:18.825Z,36.27
2022-11-30T07:53:45.948Z,20.03
2022-11-30T07:56:15.243Z,25.50
2022-11-30T07:58:42.487Z,22.70
2022-11-30T08:01:11.919Z,23.03
2022-11-30T08:03:38.624Z,37.73
2022-11-30T08:06:07.304Z,54.07
2022-11-30T08:08:36.830Z,42.60
2022-11-30T08:11:05.211Z,21.60
2022-11-30T08:13:32.174Z,31.30
2022-11-30T08:16:07.807Z,50.67
2022-11-30T08:18:34.803Z,22.70
2022-11-30T08:21:03.974Z,29.43
2022-11-30T08:23:35.176Z,29.10
2022-11-30T08:26:26.268Z,17.33
2022-11-30T08:28:53.963Z,25.20
2022-11-30T08:31:21.917Z,27.17
2022-11-30T08:33:48.607Z,13.87
2022-11-30T08:36:18.439Z,22.13
2022-11-30T08:38:46.276Z,30.93
2022-11-30T08:41:15.321Z,30.67
2022-11-30T08:43:42.747Z,35.97
2022-11-30T08:46:35.130Z,28.30
2022-11-30T08:49:19.741Z,32.23
2022-11-30T08:52:16.035Z,27.40
2022-11-30T08:54:34.035Z,34.10
2022-11-30T08:57:00.523Z,28.43
2022-11-30T08:59:27.000Z,29.57
2022-11-30T09:01:53.549Z,28.73
2022-11-30T09:04:20.089Z,21.87
2022-11-30T09:06:46.730Z,24.73
2022-11-30T09:09:13.676Z,15.40
2022-11-30T09:11:40.156Z,24.93
2022-11-30T09:14:09.082Z,15.30
2022-11-30T09:16:35.934Z,21.17
2022-11-30T09:19:02.856Z,21.70
2022-11-30T09:21:29.424Z,14.13
2022-11-30T09:23:56.611Z,14.93
2022-11-30T09:26:25.289Z,17.63
2022-11-30T09:28:53.301Z,13.97
2022-11-30T09:31:24.228Z,16.87
2022-11-30T09:33:51.542Z,16.93
2022-11-30T09:36:20.494Z,17.67
2022-11-30T09:38:47.977Z,17.63
2022-11-30T09:41:23.416Z,16.53
2022-11-30T09:44:03.199Z,18.07
2022-11-30T09:47:02.601Z,15.87
2022-11-30T09:49:35.791Z,18.23
2022-11-30T09:52:06.036Z,18.47
2022-11-30T09:54:39.730Z,17.10
2022-11-30T09:57:30.193Z,16.07
2022-11-30T10:00:02.554Z,19.80
2022-11-30T10:02:40.689Z,15.53
2022-11-30T10:05:15.904Z,19.77
2022-11-30T10:07:59.760Z,16.60
2022-11-30T10:10:38.394Z,15.20
2022-11-30T10:13:31.685Z,15.97
2022-11-30T10:16:01.349Z,13.90
2022-11-30T10:18:51.041Z,16.27
2022-11-30T10:21:42.189Z,18.63
2022-11-30T10:24:32.374Z,12.03
2022-11-30T10:27:05.835Z,16.77
2022-11-30T10:29:36.111Z,16.87
2022-11-30T10:32:13.666Z,17.80
2022-11-30T10:34:43.070Z,13.93
2022-11-30T10:37:15.219Z,17.67
2022-11-30T10:40:04.867Z,16.60
2022-11-30T10:42:50.269Z,15.13
2022-11-30T10:45:29.009Z,18.77
2022-11-30T10:48:25.939Z,16.80
2022-11-30T10:50:53.234Z,15.90
2022-11-30T10:53:20.073Z,17.87
2022-11-30T10:56:01.584Z,12.30
2022-11-30T10:58:33.027Z,14.33
2022-11-30T11:01:03.367Z,14.43
2022-11-30T11:03:30.396Z,18.20
2022-11-30T11:06:07.626Z,13.70
2022-11-30T11:08:34.142Z,16.17
2022-11-30T11:11:00.985Z,13.07
2022-11-30T11:13:42.067Z,11.93
2022-11-30T11:16:11.501Z,13.60
2022-11-30T11:18:53.550Z,14.50
2022-11-30T11:21:22.697Z,14.33
2022-11-30T11:23:52.707Z,14.87
2022-11-30T11:26:29.196Z,15.73
2022-11-30T11:28:59.644Z,16.27
2022-11-30T11:31:44.185Z,13.27
2022-11-30T11:34:31.708Z,13.60
2022-11-30T11:37:06.001Z,10.53
2022-11-30T11:39:32.640Z,12.57
2022-11-30T11:42:00.441Z,10.57
2022-11-30T11:44:28.308Z,13.77
2022-11-30T11:46:59.848Z,11.03
2022-11-30T11:49:32.931Z,8.63
2022-11-30T11:52:17.809Z,11.07
2022-11-30T11:54:53.354Z,9.03
2022-11-30T11:57:23.537Z,31.00
2022-11-30T12:00:05.517Z,9.07
2022-11-30T12:02:51.321Z,10.10
2022-11-30T12:05:21.027Z,8.33
2022-11-30T12:08:07.785Z,10.03
2022-11-30T12:10:57.220Z,10.90
2022-11-30T12:13:32.493Z,12.20
2022-11-30T12:16:33.271Z,11.17
2022-11-30T12:19:18.100Z,16.83
2022-11-30T12:21:50.504Z,12.90
2022-11-30T12:24:29.692Z,13.97
2022-11-30T12:27:02.683Z,14.90
2022-11-30T12:29:47.120Z,16.30
2022-11-30T12:32:28.718Z,15.90
2022-11-30T12:34:55.129Z,13.67
2022-11-30T12:37:41.697Z,12.23
2022-11-30T12:40:23.223Z,12.73
2022-11-30T12:42:55.975Z,16.97
2022-11-30T12:45:34.660Z,14.90
2022-11-30T12:48:06.582Z,14.30
2022-11-30T12:50:45.381Z,17.20
2022-11-30T12:53:30.490Z,15.63
2022-11-30T12:56:10.261Z,12.00
2022-11-30T12:59:09.084Z,14.87
2022-11-30T13:02:04.679Z,9.97
2022-11-30T13:04:46.486Z,13.60
2022-11-30T13:07:38.071Z,14.43
2022-11-30T13:10:22.961Z,9.67
2022-11-30T13:12:53.238Z,19.77
2022-11-30T13:15:27.130Z,14.17
2022-11-30T13:17:55.454Z,14.53
2022-11-30T13:20:30.845Z,12.47
2022-11-30T13:23:03.260Z,11.43
2022-11-30T13:26:10.295Z,13.60
2022-11-30T13:28:42.661Z,15.87
2022-11-30T13:31:14.580Z,11.17
2022-11-30T13:33:48.268Z,13.27
2022-11-30T13:36:33.590Z,15.73
2022-11-30T13:39:12.251Z,11.97
2022-11-30T13:41:40.320Z,14.07
2022-11-30T13:44:30.120Z,12.20
2022-11-30T13:46:57.365Z,15.40
2022-11-30T13:49:30.155Z,14.63
2022-11-30T13:52:21.616Z,14.43
2022-11-30T13:54:45.317Z,12.77
2022-11-30T13:57:30.204Z,14.20
2022-11-30T13:59:57.677Z,18.23
2022-11-30T14:02:33.760Z,15.63
2022-11-30T14:05:18.691Z,13.70
2022-11-30T14:08:00.506Z,12.80
2022-11-30T14:10:27.167Z,11.73
2022-11-30T14:13:04.478Z,8.87
2022-11-30T14:15:40.917Z,12.70
2022-11-30T14:18:07.417Z,10.90
2022-11-30T14:20:39.044Z,12.30
2022-11-30T14:23:13.425Z,9.70
2022-11-30T14:25:46.960Z,13.80
2022-11-30T14:28:17.816Z,10.00
2022-11-30T14:30:45.508Z,9.00
2022-11-30T14:33:19.896Z,10.93
2022-11-30T14:35:54.111Z,11.80
2022-11-30T14:38:31.277Z,12.63
2022-11-30T14:40:58.444Z,9.67
2022-11-30T14:43:25.314Z,8.17
2022-11-30T14:46:04.571Z,10.90
2022-11-30T14:48:33.650Z,12.63
2022-11-30T14:51:03.590Z,13.17
2022-11-30T14:53:47.162Z,12.67
2022-11-30T14:56:45.875Z,11.60
2022-11-30T14:59:36.995Z,10.00
2022-11-30T15:02:19.073Z,10.70
2022-11-30T15:04:47.428Z,12.20
2022-11-30T15:07:16.062Z,8.53
2022-11-30T15:09:44.207Z,11.60
2022-11-30T15:12:10.885Z,11.77
2022-11-30T15:14:37.431Z,12.60
2022-11-30T15:17:03.913Z,11.33
2022-11-30T15:19:33.163Z,9.13
2022-11-30T15:22:00.180Z,11.70
2022-11-30T15:24:29.452Z,12.00
2022-11-30T15:26:56.280Z,12.53
2022-11-30T15:29:28.934Z,12.10
2022-11-30T15:31:57.101Z,11.60
2022-11-30T15:34:31.731Z,12.40
2022-11-30T15:36:59.420Z,13.03
2022-11-30T15:39:28.484Z,10.17
2022-11-30T15:42:01.341Z,10.40
2022-11-30T15:44:45.505Z,11.80
2022-11-30T15:47:32.072Z,10.87
2022-11-30T15:49:58.519Z,12.97
2022-11-30T15:52:27.409Z,11.83
2022-11-30T15:54:56.480Z,13.03
2022-11-30T15:57:24.817Z,16.00
2022-11-30T16:00:15.796Z,11.80
2022-11-30T16:02:42.347Z,9.27
2022-11-30T16:05:19.644Z,12.27
2022-11-30T16:07:59.836Z,12.17
2022-11-30T16:10:34.990Z,12.30
2022-11-30T16:13:02.282Z,11.90
2022-11-30T16:15:31.655Z,15.00
2022-11-30T16:18:02.398Z,17.30
2022-11-30T16:20:28.894Z,12.47
2022-11-30T16:22:55.494Z,14.43
2022-11-30T16:25:24.310Z,12.60
2022-11-30T16:27:51.787Z,14.53
2022-11-30T16:30:21.129Z,11.07
2022-11-30T16:32:47.761Z,10.80
2022-11-30T16:35:27.880Z,12.20
2022-11-30T16:37:54.395Z,18.93
2022-11-30T16:40:21.285Z,12.57
2022-11-30T16:42:53.497Z,14.63
2022-11-30T16:45:25.215Z,11.53
2022-11-30T16:47:52.484Z,14.40
2022-11-30T16:50:19.958Z,15.90
2022-11-30T16:52:46.922Z,12.60
2022-11-30T16:55:19.066Z,12.37
2022-11-30T16:57:46.606Z,16.90
2022-11-30T17:00:15.803Z,14.33
2022-11-30T17:02:48.506Z,15.20
2022-11-30T17:05:15.619Z,16.00
2022-11-30T17:07:42.574Z,13.83
2022-11-30T17:10:09.570Z,16.67
2022-11-30T17:12:36.448Z,15.37
2022-11-30T17:15:04.449Z,15.17
2022-11-30T17:17:31.144Z,18.03
2022-11-30T17:19:57.941Z,11.07
2022-11-30T17:22:24.551Z,14.03
2022-11-30T17:24:51.180Z,13.20
2022-11-30T17:27:17.745Z,19.37
2022-11-30T17:29:44.511Z,19.30
2022-11-30T17:32:11.071Z,16.57
2022-11-30T17:34:37.871Z,14.70
2022-11-30T17:37:04.773Z,18.13
2022-11-30T17:39:31.510Z,19.67
2022-11-30T17:41:58.054Z,22.83
2022-11-30T17:44:24.754Z,18.30
2022-11-30T17:46:51.611Z,18.07
2022-11-30T17:49:18.433Z,14.27
2022-11-30T17:51:45.097Z,19.67
2022-11-30T17:54:11.773Z,16.77
2022-11-30T17:56:38.425Z,16.70
2022-11-30T17:59:05.174Z,21.30
2022-11-30T18:01:31.916Z,17.03
2022-11-30T18:03:59.143Z,14.20
2022-11-30T18:06:25.838Z,19.97
2022-11-30T18:08:52.664Z,16.37
2022-11-30T18:11:21.727Z,17.50
2022-11-30T18:13:51.848Z,22.37
2022-11-30T18:16:22.468Z,12.73
2022-11-30T18:18:49.420Z,19.57
2022-11-30T18:21:18.168Z,22.27
2022-11-30T18:23:44.737Z,12.67
2022-11-30T18:26:13.575Z,21.67
2022-11-30T18:28:40.840Z,18.20
2022-11-30T18:31:07.804Z,19.07
2022-11-30T18:33:35.553Z,18.13
2022-11-30T18:36:03.124Z,15.23
2022-11-30T18:38:34.299Z,21.40
2022-11-30T18:41:04.605Z,15.60
2022-11-30T18:43:32.071Z,16.97
2022-11-30T18:46:06.421Z,17.97
2022-11-30T18:48:33.262Z,14.37
2022-11-30T18:51:00.358Z,14.83
2022-11-30T18:53:26.922Z,18.00
2022-11-30T18:55:53.594Z,14.70
2022-11-30T18:58:20.165Z,12.90
2022-11-30T19:00:46.819Z,16.70
2022-11-30T19:03:13.497Z,12.40
2022-11-30T19:05:40.961Z,14.43
2022-11-30T19:08:11.425Z,14.73
2022-11-30T19:10:40.028Z,13.00
2022-11-30T19:13:07.530Z,16.43
2022-11-30T19:15:41.500Z,10.87
2022-11-30T19:18:11.120Z,12.97
2022-11-30T19:20:41.353Z,17.80
2022-11-30T19:23:08.384Z,13.63
2022-11-30T19:25:35.015Z,13.43
2022-11-30T19:28:01.639Z,12.80
2022-11-30T19:30:28.317Z,15.57
2022-11-30T19:32:54.960Z,16.83
2022-11-30T19:35:23.227Z,20.57
2022-11-30T19:37:52.095Z,13.30
2022-11-30T19:40:18.830Z,15.17
2022-11-30T19:42:45.499Z,18.07
2022-11-30T19:45:12.180Z,10.37
2022-11-30T19:47:38.920Z,14.33
2022-11-30T19:50:06.016Z,15.50
2022-11-30T19:52:32.656Z,13.83
2022-11-30T19:54:59.347Z,13.00
2022-11-30T19:57:25.924Z,16.20
2022-11-30T19:59:52.547Z,12.80
2022-11-30T20:02:19.183Z,12.50
2022-11-30T20:04:45.925Z,14.47
2022-11-30T20:07:14.361Z,15.87
2022-11-30T20:09:41.406Z,13.43
2022-11-30T20:12:08.207Z,14.03
2022-11-30T20:14:37.302Z,11.53
2022-11-30T20:17:06.687Z,18.50
2022-11-30T20:19:33.319Z,13.07
2022-11-30T20:22:00.693Z,11.97
2022-11-30T20:24:27.283Z,13.00
2022-11-30T20:26:53.893Z,16.07
2022-11-30T20:29:20.598Z,14.53
2022-11-30T20:31:48.787Z,11.00
2022-11-30T20:34:16.225Z,15.77
2022-11-30T20:36:43.133Z,16.43
2022-11-30T20:39:10.988Z,11.23
2022-11-30T20:41:37.924Z,17.67
2022-11-30T20:44:04.909Z,11.27
2022-11-30T20:46:35.807Z,15.27
2022-11-30T20:49:04.344Z,10.23
2022-11-30T20:51:33.627Z,13.23
2022-11-30T20:54:03.261Z,11.43
2022-11-30T20:56:30.084Z,13.33
2022-11-30T20:59:00.356Z,16.63
2022-11-30T21:01:26.955Z,14.20
2022-11-30T21:03:53.874Z,11.87
2022-11-30T21:06:20.599Z,13.43
2022-11-30T21:08:47.198Z,14.10
2022-11-30T21:11:16.552Z,13.77
2022-11-30T21:13:45.193Z,13.30
2022-11-30T21:16:14.470Z,11.47
2022-11-30T21:18:44.428Z,15.30
2022-11-30T21:21:21.694Z,13.17
2022-11-30T21:23:49.412Z,12.00
2022-11-30T21:26:20.189Z,12.43
2022-11-30T21:28:48.400Z,13.97
2022-11-30T21:31:15.896Z,12.63
2022-11-30T21:33:48.940Z,11.10
2022-11-30T21:36:19.550Z,14.73
2022-11-30T21:38:46.350Z,11.43
2022-11-30T21:41:13.947Z,13.03
2022-11-30T21:43:41.182Z,14.00
2022-11-30T21:46:14.031Z,13.77
2022-11-30T21:48:43.103Z,14.70
2022-11-30T21:51:22.316Z,11.50
2022-11-30T21:53:50.893Z,12.17
2022-11-30T21:56:20.658Z,11.63
2022-11-30T21:58:49.007Z,14.27
2022-11-30T22:01:25.554Z,17.13
2022-11-30T22:03:54.191Z,10.63
2022-11-30T22:06:22.495Z,14.27
2022-11-30T22:08:49.242Z,15.97
2022-11-30T22:11:18.165Z,12.40
2022-11-30T22:13:45.523Z,14.50
2022-11-30T22:16:15.113Z,13.73
2022-11-30T22:18:43.371Z,11.93
2022-11-30T22:21:17.745Z,15.77
2022-11-30T22:23:52.231Z,17.10
2022-11-30T22:26:21.423Z,12.17
2022-11-30T22:28:50.658Z,11.70
2022-11-30T22:31:19.359Z,16.23
2022-11-30T22:33:46.858Z,13.57
2022-11-30T22:36:18.583Z,14.37
2022-11-30T22:38:45.851Z,12.83
2022-11-30T22:41:15.069Z,13.57
2022-11-30T22:43:42.742Z,11.27
2022-11-30T22:46:12.109Z,13.27
2022-11-30T22:48:39.657Z,10.00
2022-11-30T22:51:09.203Z,15.07
2022-11-30T22:53:37.033Z,13.27
2022-11-30T22:56:06.257Z,12.23
2022-11-30T22:58:33.288Z,12.47
2022-11-30T23:01:08.463Z,11.70
2022-11-30T23:03:35.381Z,15.37
2022-11-30T23:06:02.086Z,10.97
2022-11-30T23:08:29.949Z,11.57
2022-11-30T23:11:02.136Z,17.77
2022-11-30T23:13:29.369Z,12.37
2022-11-30T23:15:57.838Z,15.20
2022-11-30T23:18:24.727Z,14.70
2022-11-30T23:20:51.297Z,14.53
2022-11-30T23:23:18.417Z,17.73
2022-11-30T23:25:45.085Z,17.37
2022-11-30T23:28:11.706Z,18.50
2022-11-30T23:30:38.264Z,19.30
2022-11-30T23:33:05.036Z,18.20
2022-11-30T23:35:31.610Z,18.17
2022-11-30T23:37:58.196Z,18.07
2022-11-30T23:40:25.643Z,14.70
2022-11-30T23:42:52.400Z,17.63
2022-11-30T23:45:18.958Z,19.73
2022-11-30T23:47:45.549Z,17.83
2022-11-30T23:50:12.262Z,21.30
2022-11-30T23:52:38.822Z,22.80
2022-11-30T23:55:06.114Z,18.10
2022-11-30T23:57:32.713Z,12.70
2022-11-30T23:59:59.248Z,17.47
